Time;durP1;ratioP1;P1;durP2;ratioP2;P2;SDS_P1;SDS_P2;PMS_P1;PMS_P2;Temp;Humidity;BMP_temperature;BMP_pressure;BME280_temperature;BME280_humidity;BME280_pressure;Samples;Min_cycle;Max_cycle;Signal;HPM_P1;HPM_P2
2024/01/01 00:02:18;;;;;;;29.90;17.90;;;2.20;99.90;1.30;99534;;;;561627;252;24083;-80
2024/01/01 00:04:46;;;;;;;37.87;19.50;;;2.20;99.90;1.30;99531;;;;560150;254;24057;-81
2024/01/01 00:07:14;;;;;;;40.20;23.37;;;2.20;99.90;1.30;99536;;;;562324;248;24155;-80
2024/01/01 00:09:42;;;;;;;39.30;21.67;;;2.30;99.90;1.30;99530;;;;562919;254;24117;-80
2024/01/01 00:12:10;;;;;;;34.87;18.60;;;2.30;99.90;1.40;99533;;;;560621;253;24157;-79
2024/01/01 00:14:38;;;;;;;24.10;15.27;;;2.30;99.90;1.40;99530;;;;557700;254;24102;-80
2024/01/01 00:17:06;;;;;;;31.13;17.27;;;2.30;99.90;1.40;99530;;;;560279;253;24085;-81
2024/01/01 00:19:34;;;;;;;23.87;14.10;;;2.30;99.90;1.40;99528;;;;562593;249;24103;-80
2024/01/01 00:22:02;;;;;;;33.07;18.10;;;2.30;99.90;1.40;99524;;;;559511;253;24116;-81
2024/01/01 00:24:30;;;;;;;35.17;18.77;;;2.30;99.90;1.40;99524;;;;557322;254;24167;-82
2024/01/01 00:27:01;;;;;;;32.00;18.13;;;2.30;99.90;1.40;99515;;;;560247;253;24108;-81
2024/01/01 00:29:25;;;;;;;34.50;19.40;;;2.30;99.90;1.40;99518;;;;565463;250;24182;-83
2024/01/01 00:31:53;;;;;;;35.23;17.57;;;2.30;99.90;1.40;99502;;;;560493;253;24098;-81
2024/01/01 00:34:21;;;;;;;39.40;22.07;;;2.30;99.90;1.40;99500;;;;557754;251;24098;-81
2024/01/01 00:36:49;;;;;;;46.67;20.00;;;2.30;99.90;1.40;99504;;;;560107;253;24146;-82
2024/01/01 00:39:20;;;;;;;37.70;20.93;;;2.30;99.90;1.30;99494;;;;557740;251;24096;-81
2024/01/01 00:41:48;;;;;;;31.10;17.57;;;2.30;99.90;1.40;99497;;;;568384;250;24097;-81
2024/01/01 00:44:16;;;;;;;30.07;17.97;;;2.30;99.90;1.30;99491;;;;557520;251;24079;-80
2024/01/01 00:46:44;;;;;;;33.17;19.10;;;2.30;99.90;1.30;99486;;;;560355;253;24087;-80
2024/01/01 00:49:12;;;;;;;30.67;17.73;;;2.30;99.90;1.30;99489;;;;557152;254;24107;-80
2024/01/01 00:51:40;;;;;;;34.20;17.73;;;2.30;99.90;1.40;99487;;;;560447;253;24088;-80
2024/01/01 00:54:08;;;;;;;33.43;19.47;;;2.30;99.90;1.30;99473;;;;557632;254;24099;-80
2024/01/01 00:56:36;;;;;;;40.53;20.60;;;2.30;99.90;1.30;99489;;;;567915;253;24136;-80
2024/01/01 00:59:04;;;;;;;42.20;20.10;;;2.30;99.90;1.30;99490;;;;557384;254;24095;-80
2024/01/01 01:01:33;;;;;;;36.60;20.50;;;2.30;99.90;1.40;99485;;;;560107;253;24162;-80
2024/01/01 01:04:03;;;;;;;33.03;17.47;;;2.30;99.90;1.40;99489;;;;557047;248;24143;-80
2024/01/01 01:06:29;;;;;;;38.60;20.10;;;2.30;99.90;1.30;99483;;;;559650;253;24099;-81
2024/01/01 01:08:56;;;;;;;31.93;16.90;;;2.30;99.90;1.30;99477;;;;557445;254;24100;-81
2024/01/01 01:11:25;;;;;;;29.67;18.10;;;2.30;99.90;1.30;99476;;;;560260;253;24087;-81
2024/01/01 01:13:53;;;;;;;29.03;17.03;;;2.30;99.90;1.40;99485;;;;558097;253;24090;-81
2024/01/01 01:16:21;;;;;;;32.40;17.47;;;2.30;99.90;1.30;99472;;;;560873;253;24095;-80
2024/01/01 01:18:49;;;;;;;33.47;18.47;;;2.30;99.90;1.30;99479;;;;558285;254;24113;-81
2024/01/01 01:21:17;;;;;;;32.77;18.63;;;2.30;99.90;1.30;99467;;;;560452;253;24092;-81
2024/01/01 01:23:45;;;;;;;29.97;16.30;;;2.30;99.90;1.40;99465;;;;557994;254;24103;-81
2024/01/01 01:26:13;;;;;;;24.90;15.27;;;2.30;99.90;1.40;99466;;;;568257;253;24111;-81
2024/01/01 01:28:41;;;;;;;32.60;17.47;;;2.30;99.90;1.40;99463;;;;557735;254;24094;-81
2024/01/01 01:31:08;;;;;;;25.50;14.27;;;2.30;99.90;1.40;99465;;;;560354;253;24107;-81
2024/01/01 01:33:36;;;;;;;31.67;17.30;;;2.30;99.90;1.30;99458;;;;557778;249;24074;-81
2024/01/01 01:36:09;;;;;;;31.37;18.47;;;2.30;99.90;1.30;99457;;;;560540;253;24114;-80
2024/01/01 01:38:35;;;;;;;24.77;14.23;;;2.30;99.90;1.30;99457;;;;556937;254;24187;-81
2024/01/01 01:41:01;;;;;;;27.23;15.50;;;2.30;99.90;1.40;99446;;;;560002;253;24085;-81
2024/01/01 01:43:29;;;;;;;23.13;15.83;;;2.30;99.90;1.40;99451;;;;562145;254;24090;-81
2024/01/01 01:46:01;;;;;;;30.03;18.17;;;2.30;99.90;1.30;99446;;;;560419;253;24096;-81
2024/01/01 01:48:26;;;;;;;29.03;15.00;;;2.30;99.90;1.30;99443;;;;565229;248;24114;-81
2024/01/01 01:50:53;;;;;;;34.30;16.50;;;2.30;99.90;1.40;99443;;;;568601;253;24087;-81
2024/01/01 01:53:24;;;;;;;27.23;16.80;;;2.30;99.90;1.30;99434;;;;559612;254;24088;-81
2024/01/01 01:55:52;;;;;;;30.67;17.73;;;2.30;99.90;1.30;99429;;;;560321;253;24089;-81
2024/01/01 01:58:20;;;;;;;31.60;16.60;;;2.30;99.90;1.40;99427;;;;559642;254;24165;-78
2024/01/01 02:00:49;;;;;;;22.47;14.47;;;2.30;99.90;1.40;99424;;;;560041;253;24154;-80
2024/01/01 02:03:16;;;;;;;26.83;17.00;;;2.30;99.90;1.40;99421;;;;557107;254;24217;-81
2024/01/01 02:05:44;;;;;;;29.67;16.83;;;2.30;99.90;1.40;99414;;;;560274;253;24113;-80
2024/01/01 02:08:12;;;;;;;31.30;17.07;;;2.30;99.90;1.30;99412;;;;557447;254;24128;-80
2024/01/01 02:10:41;;;;;;;29.93;16.10;;;2.30;99.90;1.30;99419;;;;560174;253;24103;-79
2024/01/01 02:13:26;;;;;;;25.10;15.50;;;2.30;99.90;1.40;99426;;;;565707;254;24134;-80
2024/01/01 02:15:54;;;;;;;27.20;14.67;;;2.30;99.90;1.40;99425;;;;558671;252;24111;-80
2024/01/01 02:18:25;;;;;;;22.17;15.47;;;2.30;99.90;1.40;99420;;;;559910;254;24112;-84
2024/01/01 02:20:50;;;;;;;32.13;17.40;;;2.30;99.90;1.40;99412;;;;567230;251;24176;-80
2024/01/01 02:23:19;;;;;;;33.17;18.17;;;2.30;99.90;1.40;99420;;;;557398;254;24090;-80
2024/01/01 02:25:47;;;;;;;28.03;14.87;;;2.30;99.90;1.40;99409;;;;560452;252;24168;-81
2024/01/01 02:28:15;;;;;;;26.53;14.63;;;2.30;99.90;1.40;99403;;;;558110;254;24104;-78
2024/01/01 02:30:42;;;;;;;24.30;15.57;;;2.40;99.90;1.40;99401;;;;560615;253;24103;-80
2024/01/01 02:33:14;;;;;;;20.43;13.77;;;2.30;99.90;1.40;99402;;;;558592;254;24099;-78
2024/01/01 02:35:38;;;;;;;24.37;13.93;;;2.30;99.90;1.40;99402;;;;561875;253;24106;-80
2024/01/01 02:38:07;;;;;;;24.20;14.73;;;2.40;99.90;1.40;99403;;;;564392;254;24093;-80
2024/01/01 02:40:37;;;;;;;24.90;15.07;;;2.40;99.90;1.40;99401;;;;562137;253;24059;-80
2024/01/01 02:43:05;;;;;;;29.63;15.53;;;2.30;99.90;1.40;99399;;;;558928;248;24162;-81
2024/01/01 02:45:36;;;;;;;21.67;12.57;;;2.30;99.90;1.40;99398;;;;560293;253;24106;-81
2024/01/01 02:48:01;;;;;;;21.27;11.37;;;2.40;99.90;1.40;99401;;;;565342;254;25174;-83
2024/01/01 02:50:29;;;;;;;28.70;16.07;;;2.40;99.90;1.40;99396;;;;560426;253;24088;-80
2024/01/01 02:52:59;;;;;;;27.57;16.23;;;2.40;99.90;1.40;99396;;;;557144;254;24087;-80
2024/01/01 02:55:25;;;;;;;24.13;15.43;;;2.30;99.90;1.40;99399;;;;563801;253;24103;-81
2024/01/01 02:57:53;;;;;;;22.57;15.03;;;2.40;99.90;1.40;99391;;;;557595;254;24093;-80
2024/01/01 03:00:21;;;;;;;20.73;14.10;;;2.40;99.90;1.40;99394;;;;567858;253;25129;-80
2024/01/01 03:02:53;;;;;;;28.00;15.37;;;2.40;99.90;1.40;99386;;;;556627;254;24086;-80
2024/01/01 03:05:22;;;;;;;25.07;15.93;;;2.40;99.90;1.50;99388;;;;559194;253;24102;-80
2024/01/01 03:07:46;;;;;;;23.60;14.93;;;2.40;99.90;1.50;99396;;;;557131;254;24099;-80
2024/01/01 03:10:13;;;;;;;31.10;16.60;;;2.40;99.90;1.40;99393;;;;560150;253;24103;-81
2024/01/01 03:12:41;;;;;;;26.60;15.70;;;2.40;99.90;1.40;99397;;;;557472;254;24144;-81
2024/01/01 03:15:09;;;;;;;26.27;13.53;;;2.40;99.90;1.40;99403;;;;560115;253;24097;-80
2024/01/01 03:17:37;;;;;;;29.27;14.53;;;2.40;99.90;1.40;99390;;;;565725;254;24088;-81
2024/01/01 03:20:05;;;;;;;19.67;12.10;;;2.40;99.90;1.50;99389;;;;559688;253;25227;-81
2024/01/01 03:22:33;;;;;;;24.67;12.93;;;2.40;99.90;1.50;99387;;;;556855;254;24144;-81
2024/01/01 03:25:01;;;;;;;19.63;10.90;;;2.40;99.90;1.50;99393;;;;560137;253;24087;-80
2024/01/01 03:27:29;;;;;;;21.17;12.63;;;2.50;99.90;1.50;99385;;;;557109;254;24106;-80
2024/01/01 03:29:57;;;;;;;23.17;14.53;;;2.40;99.90;1.50;99386;;;;568032;253;25174;-81
2024/01/01 03:32:26;;;;;;;20.20;14.10;;;2.40;99.90;1.40;99389;;;;557410;254;25147;-82
2024/01/01 03:34:53;;;;;;;25.87;14.70;;;2.40;99.90;1.40;99383;;;;560138;253;24136;-82
2024/01/01 03:37:21;;;;;;;25.03;14.83;;;2.40;99.90;1.40;99386;;;;557921;254;24170;-81
2024/01/01 03:39:49;;;;;;;23.23;12.77;;;2.30;99.90;1.40;99373;;;;560893;253;24084;-81
2024/01/01 03:42:18;;;;;;;25.50;14.60;;;2.30;99.90;1.40;99367;;;;557795;251;24100;-82
2024/01/01 03:44:46;;;;;;;25.30;15.47;;;2.30;99.90;1.40;99373;;;;560639;253;24087;-82
2024/01/01 03:47:14;;;;;;;26.70;14.43;;;2.30;99.90;1.40;99365;;;;557663;254;24118;-81
2024/01/01 03:49:42;;;;;;;25.17;15.67;;;2.30;99.90;1.40;99362;;;;560542;253;24084;-81
2024/01/01 03:52:10;;;;;;;25.13;14.53;;;2.30;99.90;1.40;99358;;;;557821;254;24081;-81
2024/01/01 03:54:42;;;;;;;22.13;14.67;;;2.20;99.90;1.30;99367;;;;568599;250;24108;-80
2024/01/01 03:57:06;;;;;;;22.10;14.43;;;2.20;99.90;1.30;99359;;;;556894;254;24107;-80
2024/01/01 03:59:35;;;;;;;24.23;13.93;;;2.20;99.90;1.30;99354;;;;560473;253;24107;-81
2024/01/01 04:02:03;;;;;;;27.40;15.10;;;2.20;99.90;1.30;99349;;;;558002;254;24097;-81
2024/01/01 04:04:31;;;;;;;25.70;15.97;;;2.20;99.90;1.20;99352;;;;560365;253;24101;-81
2024/01/01 04:06:59;;;;;;;29.67;16.67;;;2.20;99.90;1.20;99340;;;;557814;254;24093;-82
2024/01/01 04:09:27;;;;;;;26.40;16.13;;;2.10;99.90;1.20;99340;;;;560275;253;24106;-82
2024/01/01 04:11:55;;;;;;;30.27;18.13;;;2.10;99.90;1.20;99349;;;;565240;254;24132;-81
2024/01/01 04:14:23;;;;;;;25.13;16.73;;;2.20;99.90;1.20;99336;;;;560057;253;24112;-81
2024/01/01 04:16:51;;;;;;;31.93;16.33;;;2.10;99.90;1.20;99350;;;;557221;254;25204;-82
2024/01/01 04:19:21;;;;;;;31.03;16.23;;;2.10;99.90;1.20;99351;;;;560136;253;24117;-81
2024/01/01 04:21:48;;;;;;;29.87;17.27;;;2.10;99.90;1.20;99343;;;;557238;254;25152;-82
2024/01/01 04:24:15;;;;;;;23.63;15.77;;;2.10;99.90;1.20;99343;;;;560268;253;24111;-80
2024/01/01 04:26:45;;;;;;;33.40;18.73;;;2.10;99.90;1.20;99334;;;;557199;254;24126;-81
2024/01/01 04:29:14;;;;;;;31.03;17.30;;;2.10;99.90;1.20;99338;;;;559360;253;24088;-81
2024/01/01 04:31:44;;;;;;;28.90;17.47;;;2.10;99.90;1.20;99335;;;;556969;254;24129;-81
2024/01/01 04:34:08;;;;;;;29.47;17.27;;;2.10;99.90;1.20;99331;;;;559605;253;24099;-81
2024/01/01 04:36:37;;;;;;;30.73;16.40;;;2.10;99.90;1.20;99328;;;;557576;251;24091;-81
2024/01/01 04:39:09;;;;;;;29.73;15.23;;;2.10;99.90;1.10;99321;;;;563433;253;24090;-81
2024/01/01 04:41:34;;;;;;;28.30;17.37;;;2.10;99.90;1.10;99323;;;;565456;252;24107;-82
2024/01/01 04:44:01;;;;;;;28.33;16.23;;;2.10;99.90;1.10;99327;;;;560107;253;24082;-82
2024/01/01 04:46:29;;;;;;;30.07;16.33;;;2.10;99.90;1.10;99335;;;;557179;254;24127;-80
2024/01/01 04:48:57;;;;;;;34.63;17.83;;;2.00;99.90;1.10;99326;;;;560498;252;24106;-80
2024/01/01 04:51:25;;;;;;;27.83;16.00;;;2.00;99.90;1.10;99331;;;;558713;254;24147;-80
2024/01/01 04:53:53;;;;;;;25.30;15.33;;;2.00;99.90;1.10;99331;;;;561389;253;24087;-80
2024/01/01 04:56:23;;;;;;;28.93;16.50;;;2.00;99.90;1.10;99325;;;;558554;254;24204;-81
2024/01/01 04:58:50;;;;;;;29.77;16.57;;;2.00;99.90;1.10;99324;;;;561143;252;24072;-81
2024/01/01 05:01:21;;;;;;;33.13;17.07;;;2.00;99.90;1.10;99329;;;;560358;254;24105;-81
2024/01/01 05:03:46;;;;;;;25.20;15.67;;;2.00;99.90;1.10;99314;;;;568271;253;24111;-82
2024/01/01 05:06:15;;;;;;;32.70;16.77;;;2.10;99.90;1.10;99317;;;;557791;254;24116;-81
2024/01/01 05:08:43;;;;;;;29.27;17.57;;;2.10;99.90;1.10;99322;;;;560063;253;24143;-80
2024/01/01 05:11:11;;;;;;;26.70;16.60;;;2.00;99.90;1.10;99315;;;;558728;254;24076;-80
2024/01/01 05:13:39;;;;;;;28.83;16.13;;;2.10;99.90;1.10;99317;;;;561896;253;24103;-81
2024/01/01 05:16:13;;;;;;;24.90;15.67;;;2.10;99.90;1.10;99309;;;;559169;251;24074;-81
2024/01/01 05:18:38;;;;;;;27.43;17.00;;;2.10;99.90;1.10;99319;;;;561901;249;24119;-80
2024/01/01 05:21:06;;;;;;;33.73;17.23;;;2.10;99.90;1.10;99322;;;;557576;254;24088;-80
2024/01/01 05:23:37;;;;;;;29.17;16.60;;;2.10;99.90;1.20;99309;;;;560762;253;24077;-81
2024/01/01 05:26:02;;;;;;;29.93;14.60;;;2.10;99.90;1.20;99307;;;;557135;254;24104;-80
2024/01/01 05:28:30;;;;;;;25.43;14.80;;;2.10;99.90;1.20;99309;;;;559849;253;25144;-80
2024/01/01 05:30:58;;;;;;;30.07;17.70;;;2.20;99.90;1.20;99312;;;;557183;254;24125;-81
2024/01/01 05:33:25;;;;;;;29.03;17.37;;;2.20;99.90;1.20;99316;;;;568126;253;24105;-81
2024/01/01 05:35:53;;;;;;;29.23;15.20;;;2.20;99.90;1.20;99307;;;;557437;254;24090;-81
2024/01/01 05:38:22;;;;;;;26.03;15.63;;;2.20;99.90;1.30;99300;;;;559917;253;24090;-80
2024/01/01 05:40:50;;;;;;;29.10;16.70;;;2.20;99.90;1.30;99307;;;;557251;254;24100;-80
2024/01/01 05:43:21;;;;;;;26.57;16.67;;;2.20;99.90;1.20;99300;;;;566212;253;24106;-81
2024/01/01 05:45:47;;;;;;;30.10;16.80;;;2.20;99.90;1.20;99299;;;;556700;253;24098;-81
2024/01/01 05:48:15;;;;;;;20.40;14.63;;;2.20;99.90;1.20;99297;;;;560004;253;24197;-80
2024/01/01 05:50:42;;;;;;;27.87;16.83;;;2.20;99.90;1.20;99305;;;;556722;254;24146;-80
2024/01/01 05:53:10;;;;;;;29.83;17.23;;;2.20;99.90;1.20;99291;;;;560094;253;24145;-80
2024/01/01 05:55:38;;;;;;;29.37;17.50;;;2.20;99.90;1.20;99293;;;;557186;254;24127;-81
2024/01/01 05:58:07;;;;;;;34.53;18.03;;;2.10;99.90;1.20;99300;;;;560323;253;24115;-81
2024/01/01 06:00:37;;;;;;;30.63;16.57;;;2.20;99.90;1.20;99306;;;;559628;254;24127;-82
2024/01/01 06:03:05;;;;;;;29.40;17.00;;;2.20;99.90;1.20;99311;;;;561209;252;24102;-81
2024/01/01 06:05:36;;;;;;;39.00;17.93;;;2.20;99.90;1.20;99299;;;;566387;254;24085;-81
2024/01/01 06:08:01;;;;;;;31.37;17.50;;;2.20;99.90;1.20;99294;;;;558871;253;24103;-81
2024/01/01 06:10:32;;;;;;;38.93;19.27;;;2.20;99.90;1.20;99297;;;;553841;252;24196;-82
2024/01/01 06:12:57;;;;;;;31.87;17.77;;;2.20;99.90;1.30;99294;;;;567413;250;24110;-82
2024/01/01 06:15:25;;;;;;;33.63;18.37;;;2.20;99.90;1.30;99282;;;;558197;254;24143;-81
2024/01/01 06:17:53;;;;;;;27.90;16.30;;;2.20;99.90;1.30;99283;;;;560934;253;24101;-82
2024/01/01 06:20:21;;;;;;;33.57;16.67;;;2.20;99.90;1.30;99282;;;;557238;254;24096;-82
2024/01/01 06:22:52;;;;;;;29.13;18.63;;;2.20;99.90;1.20;99296;;;;560522;253;24103;-81
2024/01/01 06:25:17;;;;;;;30.70;17.63;;;2.20;99.90;1.20;99306;;;;559825;254;24170;-81
2024/01/01 06:27:45;;;;;;;34.53;18.63;;;2.20;99.90;1.30;99304;;;;559957;253;24128;-81
2024/01/01 06:30:13;;;;;;;31.53;18.20;;;2.20;99.90;1.30;99294;;;;557559;254;24097;-81
2024/01/01 06:32:41;;;;;;;28.73;17.17;;;2.20;99.90;1.20;99292;;;;559702;253;24088;-80
2024/01/01 06:35:10;;;;;;;28.33;17.80;;;2.20;99.90;1.20;99298;;;;566268;254;24113;-80
2024/01/01 06:37:38;;;;;;;26.60;16.70;;;2.20;99.90;1.30;99294;;;;561102;253;24102;-81
2024/01/01 06:40:06;;;;;;;26.87;14.00;;;2.20;99.90;1.30;99289;;;;562878;250;24198;-81
2024/01/01 06:42:33;;;;;;;27.27;16.03;;;2.20;99.90;1.30;99270;;;;559846;253;24114;-81
2024/01/01 06:45:01;;;;;;;37.30;17.90;;;2.30;99.90;1.30;99273;;;;556516;251;24067;-80
2024/01/01 06:47:29;;;;;;;31.83;15.17;;;2.30;99.90;1.30;99263;;;;563948;253;24136;-80
2024/01/01 06:49:57;;;;;;;29.10;17.93;;;2.30;99.90;1.30;99262;;;;556639;254;24097;-80
2024/01/01 06:52:25;;;;;;;29.10;15.50;;;2.30;99.90;1.30;99257;;;;559997;253;24085;-80
2024/01/01 06:54:54;;;;;;;26.73;16.33;;;2.30;99.90;1.30;99257;;;;557226;251;24119;-80
2024/01/01 06:57:22;;;;;;;26.17;16.77;;;2.30;99.90;1.30;99244;;;;560486;253;24059;-80
2024/01/01 06:59:50;;;;;;;29.23;13.67;;;2.30;99.90;1.40;99251;;;;558236;254;25161;-80
2024/01/01 07:02:21;;;;;;;26.17;15.97;;;2.30;99.90;1.30;99261;;;;560281;253;24092;-80
2024/01/01 07:04:46;;;;;;;29.23;16.60;;;2.30;99.90;1.30;99282;;;;557036;249;24119;-81
2024/01/01 07:07:18;;;;;;;32.50;17.50;;;2.30;99.90;1.30;99287;;;;568438;253;24069;-81
2024/01/01 07:09:42;;;;;;;32.03;16.83;;;2.20;99.90;1.30;99298;;;;565662;249;24104;-81
2024/01/01 07:12:26;;;;;;;30.57;17.60;;;2.30;99.90;1.40;99299;;;;561340;252;24101;-80
2024/01/01 07:14:53;;;;;;;30.27;16.60;;;2.40;99.90;1.40;99293;;;;566167;254;24093;-80
2024/01/01 07:17:19;;;;;;;33.30;17.33;;;2.30;99.90;1.40;99284;;;;564297;253;24131;-80
2024/01/01 07:19:46;;;;;;;36.80;18.63;;;2.40;99.90;1.40;99290;;;;557740;254;24099;-81
2024/01/01 07:22:14;;;;;;;36.00;17.57;;;2.40;99.90;1.40;99281;;;;569396;252;24096;-81
2024/01/01 07:24:42;;;;;;;44.13;19.60;;;2.40;99.90;1.40;99263;;;;557833;254;24075;-82
2024/01/01 07:27:11;;;;;;;39.30;20.90;;;2.40;99.90;1.40;99255;;;;569135;253;24103;-81
2024/01/01 07:29:38;;;;;;;35.40;18.57;;;2.40;99.90;1.40;99258;;;;557217;251;24107;-81
2024/01/01 07:32:07;;;;;;;33.83;19.07;;;2.30;99.90;1.40;99257;;;;560428;253;24076;-81
2024/01/01 07:34:35;;;;;;;39.77;19.43;;;2.30;99.90;1.40;99267;;;;565077;254;24081;-81
2024/01/01 07:37:04;;;;;;;32.50;18.77;;;2.30;99.90;1.40;99266;;;;559752;253;24123;-81
2024/01/01 07:39:34;;;;;;;35.87;18.50;;;2.30;99.90;1.40;99267;;;;557441;254;24095;-81
2024/01/01 07:41:59;;;;;;;38.20;19.50;;;2.30;99.90;1.40;99269;;;;560122;253;24166;-81
2024/01/01 07:44:27;;;;;;;35.60;19.60;;;2.30;99.90;1.40;99276;;;;557792;254;24085;-82
2024/01/01 07:46:55;;;;;;;35.87;20.57;;;2.40;99.90;1.40;99276;;;;560538;253;24175;-81
2024/01/01 07:49:23;;;;;;;38.50;20.23;;;2.40;99.90;1.40;99270;;;;557880;254;24124;-80
2024/01/01 07:51:51;;;;;;;41.97;19.97;;;2.40;99.90;1.50;99283;;;;561630;253;24092;-81
2024/01/01 07:54:19;;;;;;;35.67;19.17;;;2.40;99.90;1.50;99280;;;;558670;254;24079;-80
2024/01/01 07:56:49;;;;;;;41.30;19.40;;;2.50;99.90;1.50;99281;;;;560394;253;24105;-80
2024/01/01 07:59:14;;;;;;;32.73;18.57;;;2.50;99.90;1.60;99276;;;;557707;254;24085;-80
2024/01/01 08:01:42;;;;;;;34.47;18.20;;;2.50;99.90;1.60;99280;;;;560416;253;24091;-81
2024/01/01 08:04:13;;;;;;;42.83;20.67;;;2.50;99.90;1.60;99280;;;;557681;254;24112;-81
2024/01/01 08:06:41;;;;;;;41.67;19.47;;;2.50;99.90;1.60;99279;;;;559991;253;24209;-80
2024/01/01 08:09:06;;;;;;;37.83;18.47;;;2.60;99.90;1.60;99263;;;;561843;250;24108;-80
2024/01/01 08:11:34;;;;;;;37.70;17.83;;;2.60;99.90;1.70;99267;;;;560866;253;24171;-81
2024/01/01 08:14:02;;;;;;;39.93;18.03;;;2.60;99.90;1.70;99269;;;;558339;254;24081;-80
2024/01/01 08:16:33;;;;;;;44.47;19.17;;;2.60;99.90;1.70;99266;;;;559975;253;24152;-81
2024/01/01 08:18:58;;;;;;;42.87;18.27;;;2.70;99.90;1.80;99257;;;;557806;252;24141;-81
2024/01/01 08:21:26;;;;;;;36.37;17.77;;;2.70;99.90;1.80;99254;;;;560461;253;24084;-81
2024/01/01 08:23:53;;;;;;;28.17;12.07;;;2.80;99.90;1.80;99257;;;;558650;254;24097;-81
2024/01/01 08:26:21;;;;;;;25.53;13.43;;;2.80;99.90;1.90;99256;;;;561481;253;24110;-82
2024/01/01 08:28:51;;;;;;;26.30;12.07;;;2.80;99.90;1.90;99263;;;;557921;254;24089;-81
2024/01/01 08:31:21;;;;;;;27.77;12.90;;;2.90;99.90;1.90;99269;;;;560792;252;24112;-82
2024/01/01 08:33:49;;;;;;;20.47;10.50;;;2.80;99.90;1.90;99264;;;;557566;254;24118;-82
2024/01/01 08:36:19;;;;;;;29.67;11.23;;;2.90;99.90;1.90;99270;;;;560287;253;24090;-81
2024/01/01 08:38:45;;;;;;;19.20;10.50;;;2.90;99.90;1.90;99264;;;;557754;254;24097;-82
2024/01/01 08:41:12;;;;;;;24.37;12.57;;;2.90;99.90;1.90;99272;;;;568567;253;24106;-82
2024/01/01 08:43:40;;;;;;;33.70;12.50;;;2.90;99.90;2.00;99276;;;;557685;254;24117;-82
2024/01/01 08:46:08;;;;;;;24.10;12.17;;;2.90;99.90;2.00;99272;;;;560668;253;24102;-82
2024/01/01 08:48:40;;;;;;;17.43;9.40;;;3.00;99.90;2.00;99269;;;;557806;254;24120;-82
2024/01/01 08:51:08;;;;;;;18.00;10.30;;;3.00;99.90;2.10;99263;;;;560091;253;24146;-82
2024/01/01 08:53:36;;;;;;;21.10;11.63;;;3.00;99.90;2.00;99262;;;;557637;254;24089;-80
2024/01/01 08:56:04;;;;;;;20.90;11.27;;;3.00;99.90;2.00;99259;;;;560503;253;24088;-82
2024/01/01 08:58:32;;;;;;;27.37;12.80;;;2.90;99.90;2.00;99263;;;;565242;252;24100;-81
2024/01/01 09:01:01;;;;;;;20.77;10.10;;;2.90;99.90;2.00;99260;;;;560117;253;24104;-82
2024/01/01 09:03:29;;;;;;;29.80;11.80;;;2.90;99.90;2.00;99265;;;;557432;254;24142;-81
2024/01/01 09:05:57;;;;;;;25.77;12.30;;;2.90;99.90;2.00;99271;;;;568604;253;24166;-82
2024/01/01 09:08:29;;;;;;;20.07;10.07;;;2.90;99.90;2.00;99259;;;;557357;254;24083;-82
2024/01/01 09:10:53;;;;;;;29.70;13.47;;;3.00;99.90;2.00;99263;;;;559073;253;24111;-82
2024/01/01 09:13:21;;;;;;;12.47;8.57;;;3.00;99.90;2.00;99264;;;;557087;254;24166;-81
2024/01/01 09:15:49;;;;;;;20.30;11.27;;;3.00;99.90;2.10;99265;;;;559417;253;24096;-82
2024/01/01 09:18:17;;;;;;;28.53;12.30;;;3.00;99.90;2.10;99271;;;;557196;251;24195;-81
2024/01/01 09:20:45;;;;;;;18.33;8.63;;;3.00;99.90;2.10;99268;;;;559840;253;24094;-83
2024/01/01 09:23:13;;;;;;;24.43;10.27;;;3.00;99.90;2.10;99266;;;;556956;254;24178;-80
2024/01/01 09:25:44;;;;;;;17.40;10.03;;;3.00;99.90;2.00;99269;;;;559845;253;24061;-81
2024/01/01 09:28:09;;;;;;;19.50;12.23;;;2.90;99.90;2.00;99268;;;;556539;254;24121;-80
2024/01/01 09:30:37;;;;;;;16.97;10.40;;;2.90;99.90;2.00;99272;;;;559875;253;24081;-80
2024/01/01 09:33:06;;;;;;;23.90;12.00;;;3.00;99.90;2.00;99268;;;;556629;251;24096;-81
2024/01/01 09:35:33;;;;;;;37.07;11.80;;;3.00;99.90;2.10;99266;;;;560675;252;24097;-80
2024/01/01 09:38:03;;;;;;;21.33;11.47;;;3.00;99.90;2.10;99261;;;;558166;254;24102;-80
2024/01/01 09:40:30;;;;;;;16.30;9.77;;;3.00;99.90;2.10;99266;;;;560566;252;25141;-80
2024/01/01 09:42:58;;;;;;;26.40;12.90;;;3.00;99.90;2.10;99261;;;;565964;252;24107;-80
2024/01/01 09:45:25;;;;;;;28.33;12.83;;;3.00;99.90;2.10;99263;;;;560851;253;24099;-82
2024/01/01 09:47:58;;;;;;;26.73;11.40;;;3.00;99.90;2.10;99262;;;;557953;254;24105;-79
2024/01/01 09:50:22;;;;;;;18.10;8.73;;;3.00;99.90;2.10;99254;;;;568885;250;24117;-82
2024/01/01 09:52:50;;;;;;;33.73;13.27;;;3.10;99.90;2.10;99250;;;;562523;254;24097;-81
2024/01/01 09:55:18;;;;;;;37.80;13.07;;;3.10;99.90;2.20;99259;;;;563464;253;24121;-82
2024/01/01 09:57:46;;;;;;;25.20;12.57;;;3.10;99.90;2.20;99264;;;;557683;254;24097;-81
2024/01/01 10:00:22;;;;;;;29.77;14.10;;;3.10;99.90;2.20;99249;;;;568299;253;24115;-79
2024/01/01 10:02:54;;;;;;;34.87;13.73;;;3.10;99.90;2.20;99260;;;;554098;254;24123;-82
2024/01/01 10:05:18;;;;;;;27.83;13.03;;;3.20;99.90;2.30;99266;;;;560301;251;24111;-81
2024/01/01 10:07:50;;;;;;;25.77;12.53;;;3.20;99.90;2.30;99260;;;;557696;254;24093;-82
2024/01/01 10:10:17;;;;;;;22.97;12.23;;;3.20;99.90;2.30;99261;;;;560451;253;24092;-80
2024/01/01 10:12:45;;;;;;;30.50;13.17;;;3.20;99.90;2.30;99267;;;;570591;247;24098;-81
2024/01/01 10:15:14;;;;;;;17.07;7.23;;;3.20;99.90;2.40;99253;;;;557656;256;25163;-81
2024/01/01 10:17:42;;;;;;;26.17;14.30;;;3.20;99.90;2.40;99255;;;;557567;256;24102;-80
2024/01/01 10:20:13;;;;;;;28.67;13.53;;;3.30;99.90;2.40;99250;;;;553136;257;24137;-82
2024/01/01 10:22:40;;;;;;;33.03;14.03;;;3.30;99.90;2.40;99247;;;;552855;256;24171;-81
2024/01/01 10:25:17;;;;;;;29.00;14.27;;;3.30;99.90;2.50;99237;;;;557927;256;24151;-82
2024/01/01 10:27:45;;;;;;;31.87;15.47;;;3.40;99.90;2.60;99232;;;;563917;253;24175;-81
2024/01/01 10:30:13;;;;;;;42.53;13.43;;;3.50;99.90;2.60;99233;;;;561362;256;24191;-81
2024/01/01 10:32:38;;;;;;;34.20;14.27;;;3.50;99.90;2.70;99236;;;;555275;257;24122;-79
2024/01/01 10:35:09;;;;;;;35.70;16.07;;;3.60;99.90;2.70;99237;;;;568670;251;24101;-83
2024/01/01 10:37:33;;;;;;;28.23;14.93;;;3.60;99.90;2.70;99238;;;;559051;253;24131;-79
2024/01/01 10:40:05;;;;;;;31.00;14.37;;;3.70;99.90;2.80;99246;;;;560000;253;24079;-81
2024/01/01 10:42:33;;;;;;;25.97;11.00;;;3.70;99.90;2.80;99240;;;;565338;252;24098;-80
2024/01/01 10:45:02;;;;;;;25.73;12.70;;;3.60;99.90;2.80;99235;;;;564028;253;24089;-81
2024/01/01 10:47:27;;;;;;;33.93;13.87;;;3.70;99.90;2.80;99232;;;;558172;253;24118;-79
2024/01/01 10:49:56;;;;;;;26.67;14.83;;;3.70;99.90;2.80;99223;;;;567998;248;24115;-81
2024/01/01 10:52:41;;;;;;;24.13;13.50;;;3.70;99.90;2.80;99221;;;;560512;254;24123;-81
2024/01/01 10:55:26;;;;;;;35.57;12.10;;;3.70;99.90;2.80;99214;;;;560597;252;24099;-82
2024/01/01 10:58:22;;;;;;;23.20;12.00;;;3.70;99.90;2.90;99217;;;;565474;252;24165;-82
2024/01/01 11:01:02;;;;;;;31.63;14.03;;;3.70;99.90;2.90;99221;;;;560371;253;24094;-83
2024/01/01 11:03:27;;;;;;;34.77;13.73;;;3.80;99.90;3.00;99211;;;;560390;254;24101;-81
2024/01/01 11:05:55;;;;;;;31.50;13.87;;;3.90;99.90;3.00;99209;;;;560553;253;24085;-81
2024/01/01 11:08:30;;;;;;;27.70;14.53;;;3.90;99.90;3.00;99211;;;;557659;251;24105;-80
2024/01/01 11:10:56;;;;;;;32.97;13.17;;;3.90;99.90;3.00;99207;;;;566406;253;24119;-81
2024/01/01 11:13:27;;;;;;;19.40;10.30;;;3.90;99.90;3.00;99220;;;;565098;248;24167;-80
2024/01/01 11:15:58;;;;;;;35.30;15.63;;;3.90;99.90;2.90;99209;;;;560147;253;24119;-79
2024/01/01 11:18:35;;;;;;;29.87;14.07;;;3.80;99.90;2.90;99218;;;;556633;254;24123;-80
2024/01/01 11:21:06;;;;;;;36.60;14.67;;;3.80;99.90;3.00;99205;;;;563891;253;24107;-81
2024/01/01 11:23:47;;;;;;;33.63;12.90;;;3.90;99.90;3.00;99192;;;;565313;252;24105;-80